sensor_id;sensor_type;location;lat;lon;timestamp;P1;durP1;ratioP1;P2;durP2;ratioP2
5483;SDS011;2764;48.794;8.326;2022-12-28T00:00:28;6.57;;;5.30;;
5483;SDS011;2764;48.794;8.326;2022-12-28T00:01:30;7.10;;;5.40;;
5483;SDS011;2764;48.794;8.326;2022-12-28T00:02:34;5.80;;;5.03;;
5483;SDS011;2764;48.794;8.326;2022-12-28T00:03:35;5.53;;;5.03;;
5483;SDS011;2764;48.794;8.326;2022-12-28T00:04:37;5.83;;;5.00;;
5483;SDS011;2764;48.794;8.326;2022-12-28T00:05:39;7.17;;;5.30;;
5483;SDS011;2764;48.794;8.326;2022-12-28T00:06:41;6.77;;;6.00;;
5483;SDS011;2764;48.794;8.326;2022-12-28T00:07:43;6.63;;;5.90;;
5483;SDS011;2764;48.794;8.326;2022-12-28T00:08:45;7.07;;;5.10;;
5483;SDS011;2764;48.794;8.326;2022-12-28T00:09:47;5.37;;;4.87;;
5483;SDS011;2764;48.794;8.326;2022-12-28T00:10:49;7.77;;;5.47;;
5483;SDS011;2764;48.794;8.326;2022-12-28T00:12:10;6.30;;;5.37;;
5483;SDS011;2764;48.794;8.326;2022-12-28T00:13:12;5.80;;;4.97;;
5483;SDS011;2764;48.794;8.326;2022-12-28T00:14:14;5.73;;;5.13;;
5483;SDS011;2764;48.794;8.326;2022-12-28T00:15:16;6.10;;;5.33;;
5483;SDS011;2764;48.794;8.326;2022-12-28T00:17:32;7.27;;;5.73;;
5483;SDS011;2764;48.794;8.326;2022-12-28T00:18:34;5.30;;;4.80;;
5483;SDS011;2764;48.794;8.326;2022-12-28T00:19:36;5.43;;;4.60;;
5483;SDS011;2764;48.794;8.326;2022-12-28T00:20:38;6.07;;;5.40;;
5483;SDS011;2764;48.794;8.326;2022-12-28T00:21:40;6.60;;;4.63;;
5483;SDS011;2764;48.794;8.326;2022-12-28T00:22:43;7.73;;;4.87;;
5483;SDS011;2764;48.794;8.326;2022-12-28T00:23:49;6.07;;;4.77;;
5483;SDS011;2764;48.794;8.326;2022-12-28T00:24:53;5.07;;;4.57;;
5483;SDS011;2764;48.794;8.326;2022-12-28T00:25:55;5.47;;;4.97;;
5483;SDS011;2764;48.794;8.326;2022-12-28T00:26:57;6.23;;;5.00;;
5483;SDS011;2764;48.794;8.326;2022-12-28T00:27:59;6.33;;;4.97;;
5483;SDS011;2764;48.794;8.326;2022-12-28T00:29:01;5.03;;;4.53;;
5483;SDS011;2764;48.794;8.326;2022-12-28T00:30:06;4.73;;;4.33;;
5483;SDS011;2764;48.794;8.326;2022-12-28T00:31:08;5.03;;;4.33;;
5483;SDS011;2764;48.794;8.326;2022-12-28T00:32:10;5.87;;;5.00;;
5483;SDS011;2764;48.794;8.326;2022-12-28T00:33:12;5.93;;;5.30;;
5483;SDS011;2764;48.794;8.326;2022-12-28T00:34:16;7.07;;;4.80;;
5483;SDS011;2764;48.794;8.326;2022-12-28T00:35:17;5.33;;;4.73;;
5483;SDS011;2764;48.794;8.326;2022-12-28T00:36:19;5.27;;;4.77;;
5483;SDS011;2764;48.794;8.326;2022-12-28T00:37:20;7.53;;;4.83;;
5483;SDS011;2764;48.794;8.326;2022-12-28T00:38:23;5.43;;;4.30;;
5483;SDS011;2764;48.794;8.326;2022-12-28T00:39:26;7.00;;;5.03;;
5483;SDS011;2764;48.794;8.326;2022-12-28T00:40:28;5.60;;;5.10;;
5483;SDS011;2764;48.794;8.326;2022-12-28T00:41:30;5.40;;;4.90;;
5483;SDS011;2764;48.794;8.326;2022-12-28T00:42:31;5.93;;;5.10;;
5483;SDS011;2764;48.794;8.326;2022-12-28T00:43:33;5.33;;;4.67;;
5483;SDS011;2764;48.794;8.326;2022-12-28T00:44:35;4.30;;;3.70;;
5483;SDS011;2764;48.794;8.326;2022-12-28T00:45:37;5.83;;;4.90;;
5483;SDS011;2764;48.794;8.326;2022-12-28T00:46:39;4.80;;;4.20;;
5483;SDS011;2764;48.794;8.326;2022-12-28T00:47:41;4.63;;;3.83;;
5483;SDS011;2764;48.794;8.326;2022-12-28T00:48:43;3.90;;;3.60;;
5483;SDS011;2764;48.794;8.326;2022-12-28T00:49:45;6.07;;;4.80;;
5483;SDS011;2764;48.794;8.326;2022-12-28T00:50:46;4.80;;;4.40;;
5483;SDS011;2764;48.794;8.326;2022-12-28T00:51:48;4.70;;;4.23;;
5483;SDS011;2764;48.794;8.326;2022-12-28T00:52:50;6.07;;;4.70;;
5483;SDS011;2764;48.794;8.326;2022-12-28T00:53:52;4.70;;;4.20;;
5483;SDS011;2764;48.794;8.326;2022-12-28T00:54:54;5.00;;;4.50;;
5483;SDS011;2764;48.794;8.326;2022-12-28T00:56:02;5.47;;;4.97;;
5483;SDS011;2764;48.794;8.326;2022-12-28T00:57:05;6.50;;;4.80;;
5483;SDS011;2764;48.794;8.326;2022-12-28T00:58:07;4.33;;;3.93;;
5483;SDS011;2764;48.794;8.326;2022-12-28T00:59:09;5.97;;;4.50;;
5483;SDS011;2764;48.794;8.326;2022-12-28T01:00:12;5.00;;;4.50;;
5483;SDS011;2764;48.794;8.326;2022-12-28T01:01:16;4.90;;;4.43;;
5483;SDS011;2764;48.794;8.326;2022-12-28T01:02:20;4.33;;;3.93;;
5483;SDS011;2764;48.794;8.326;2022-12-28T01:03:22;4.33;;;3.97;;
5483;SDS011;2764;48.794;8.326;2022-12-28T01:04:24;4.30;;;3.77;;
5483;SDS011;2764;48.794;8.326;2022-12-28T01:05:26;4.50;;;4.10;;
5483;SDS011;2764;48.794;8.326;2022-12-28T01:06:28;6.97;;;4.60;;
5483;SDS011;2764;48.794;8.326;2022-12-28T01:07:30;4.90;;;4.50;;
5483;SDS011;2764;48.794;8.326;2022-12-28T01:08:32;4.20;;;3.80;;
5483;SDS011;2764;48.794;8.326;2022-12-28T01:09:35;4.50;;;4.10;;
5483;SDS011;2764;48.794;8.326;2022-12-28T01:10:38;7.30;;;5.07;;
5483;SDS011;2764;48.794;8.326;2022-12-28T01:11:39;4.27;;;3.87;;
5483;SDS011;2764;48.794;8.326;2022-12-28T01:12:41;4.20;;;3.90;;
5483;SDS011;2764;48.794;8.326;2022-12-28T01:13:43;6.23;;;4.60;;
5483;SDS011;2764;48.794;8.326;2022-12-28T01:14:45;5.17;;;4.67;;
5483;SDS011;2764;48.794;8.326;2022-12-28T01:15:47;4.80;;;4.20;;
5483;SDS011;2764;48.794;8.326;2022-12-28T01:16:49;4.43;;;4.07;;
5483;SDS011;2764;48.794;8.326;2022-12-28T01:17:52;4.67;;;4.27;;
5483;SDS011;2764;48.794;8.326;2022-12-28T01:18:57;5.40;;;4.23;;
5483;SDS011;2764;48.794;8.326;2022-12-28T01:20:00;5.27;;;4.40;;
5483;SDS011;2764;48.794;8.326;2022-12-28T01:21:09;5.20;;;4.67;;
5483;SDS011;2764;48.794;8.326;2022-12-28T01:22:12;5.60;;;4.03;;
5483;SDS011;2764;48.794;8.326;2022-12-28T01:23:14;4.50;;;4.10;;
5483;SDS011;2764;48.794;8.326;2022-12-28T01:24:16;4.87;;;4.47;;
5483;SDS011;2764;48.794;8.326;2022-12-28T01:25:18;5.40;;;4.73;;
5483;SDS011;2764;48.794;8.326;2022-12-28T01:26:20;4.60;;;4.20;;
5483;SDS011;2764;48.794;8.326;2022-12-28T01:27:23;5.23;;;4.37;;
5483;SDS011;2764;48.794;8.326;2022-12-28T01:28:24;5.47;;;4.40;;
5483;SDS011;2764;48.794;8.326;2022-12-28T01:29:26;4.33;;;3.93;;
5483;SDS011;2764;48.794;8.326;2022-12-28T01:30:29;4.67;;;4.17;;
5483;SDS011;2764;48.794;8.326;2022-12-28T01:31:31;4.63;;;3.77;;
5483;SDS011;2764;48.794;8.326;2022-12-28T01:32:32;4.40;;;4.00;;
5483;SDS011;2764;48.794;8.326;2022-12-28T01:33:34;5.53;;;4.17;;
5483;SDS011;2764;48.794;8.326;2022-12-28T01:34:36;3.80;;;3.50;;
5483;SDS011;2764;48.794;8.326;2022-12-28T01:35:37;4.27;;;3.90;;
5483;SDS011;2764;48.794;8.326;2022-12-28T01:36:39;3.97;;;3.57;;
5483;SDS011;2764;48.794;8.326;2022-12-28T01:37:41;4.20;;;3.73;;
5483;SDS011;2764;48.794;8.326;2022-12-28T01:38:43;5.60;;;4.20;;
5483;SDS011;2764;48.794;8.326;2022-12-28T01:39:45;3.87;;;3.57;;
5483;SDS011;2764;48.794;8.326;2022-12-28T01:40:48;4.13;;;3.80;;
5483;SDS011;2764;48.794;8.326;2022-12-28T01:41:50;4.23;;;3.83;;
5483;SDS011;2764;48.794;8.326;2022-12-28T01:42:52;4.30;;;4.00;;
5483;SDS011;2764;48.794;8.326;2022-12-28T01:44:55;4.70;;;3.90;;
5483;SDS011;2764;48.794;8.326;2022-12-28T01:45:57;3.40;;;3.10;;
5483;SDS011;2764;48.794;8.326;2022-12-28T01:47:02;5.67;;;4.10;;
5483;SDS011;2764;48.794;8.326;2022-12-28T01:48:13;4.47;;;4.07;;
5483;SDS011;2764;48.794;8.326;2022-12-28T01:49:21;4.40;;;4.00;;
5483;SDS011;2764;48.794;8.326;2022-12-28T01:50:29;3.63;;;3.33;;
5483;SDS011;2764;48.794;8.326;2022-12-28T01:51:49;5.40;;;3.53;;
5483;SDS011;2764;48.794;8.326;2022-12-28T01:52:59;4.10;;;3.70;;
5483;SDS011;2764;48.794;8.326;2022-12-28T01:54:04;3.37;;;3.10;;
5483;SDS011;2764;48.794;8.326;2022-12-28T01:56:07;4.27;;;3.90;;
5483;SDS011;2764;48.794;8.326;2022-12-28T01:57:09;4.03;;;3.73;;
5483;SDS011;2764;48.794;8.326;2022-12-28T01:58:19;4.23;;;3.83;;
5483;SDS011;2764;48.794;8.326;2022-12-28T01:59:25;4.43;;;4.03;;
5483;SDS011;2764;48.794;8.326;2022-12-28T02:00:30;4.03;;;3.73;;
5483;SDS011;2764;48.794;8.326;2022-12-28T02:01:33;3.67;;;3.40;;
5483;SDS011;2764;48.794;8.326;2022-12-28T02:02:35;4.23;;;3.77;;
5483;SDS011;2764;48.794;8.326;2022-12-28T02:03:38;4.00;;;3.70;;
5483;SDS011;2764;48.794;8.326;2022-12-28T02:04:40;6.37;;;4.57;;
5483;SDS011;2764;48.794;8.326;2022-12-28T02:05:42;3.70;;;3.40;;
5483;SDS011;2764;48.794;8.326;2022-12-28T02:06:46;4.03;;;3.63;;
5483;SDS011;2764;48.794;8.326;2022-12-28T02:07:50;3.60;;;3.20;;
5483;SDS011;2764;48.794;8.326;2022-12-28T02:10:05;4.60;;;4.17;;
5483;SDS011;2764;48.794;8.326;2022-12-28T02:11:27;3.17;;;2.97;;
5483;SDS011;2764;48.794;8.326;2022-12-28T02:12:29;3.80;;;3.33;;
5483;SDS011;2764;48.794;8.326;2022-12-28T02:13:32;4.07;;;3.70;;
5483;SDS011;2764;48.794;8.326;2022-12-28T02:14:35;4.03;;;3.63;;
5483;SDS011;2764;48.794;8.326;2022-12-28T02:15:37;4.20;;;3.80;;
5483;SDS011;2764;48.794;8.326;2022-12-28T02:16:39;3.93;;;3.63;;
5483;SDS011;2764;48.794;8.326;2022-12-28T02:17:43;3.90;;;3.60;;
5483;SDS011;2764;48.794;8.326;2022-12-28T02:18:45;4.10;;;3.70;;
5483;SDS011;2764;48.794;8.326;2022-12-28T02:19:47;3.87;;;3.47;;
5483;SDS011;2764;48.794;8.326;2022-12-28T02:23:32;4.03;;;3.70;;
5483;SDS011;2764;48.794;8.326;2022-12-28T02:24:57;3.83;;;3.40;;
5483;SDS011;2764;48.794;8.326;2022-12-28T02:26:28;3.17;;;2.87;;
5483;SDS011;2764;48.794;8.326;2022-12-28T02:30:14;3.40;;;2.67;;
5483;SDS011;2764;48.794;8.326;2022-12-28T02:31:19;3.07;;;2.87;;
5483;SDS011;2764;48.794;8.326;2022-12-28T02:33:55;3.70;;;3.40;;
5483;SDS011;2764;48.794;8.326;2022-12-28T02:36:21;3.00;;;2.80;;
5483;SDS011;2764;48.794;8.326;2022-12-28T02:37:33;3.97;;;3.50;;
5483;SDS011;2764;48.794;8.326;2022-12-28T02:38:38;3.77;;;3.47;;
5483;SDS011;2764;48.794;8.326;2022-12-28T02:39:52;3.33;;;3.10;;
5483;SDS011;2764;48.794;8.326;2022-12-28T02:41:02;3.50;;;3.20;;
5483;SDS011;2764;48.794;8.326;2022-12-28T02:42:08;3.90;;;3.60;;
5483;SDS011;2764;48.794;8.326;2022-12-28T02:43:10;3.90;;;3.50;;
5483;SDS011;2764;48.794;8.326;2022-12-28T02:44:13;3.63;;;3.33;;
5483;SDS011;2764;48.794;8.326;2022-12-28T02:45:36;3.20;;;3.00;;
5483;SDS011;2764;48.794;8.326;2022-12-28T02:47:02;3.20;;;3.00;;
5483;SDS011;2764;48.794;8.326;2022-12-28T02:48:37;3.30;;;3.10;;
5483;SDS011;2764;48.794;8.326;2022-12-28T02:50:05;3.90;;;3.43;;
5483;SDS011;2764;48.794;8.326;2022-12-28T02:54:26;3.27;;;2.90;;
5483;SDS011;2764;48.794;8.326;2022-12-28T02:56:29;3.10;;;2.90;;
5483;SDS011;2764;48.794;8.326;2022-12-28T02:58:57;3.60;;;2.97;;
5483;SDS011;2764;48.794;8.326;2022-12-28T03:08:28;3.47;;;3.03;;
5483;SDS011;2764;48.794;8.326;2022-12-28T03:09:49;3.40;;;3.10;;
5483;SDS011;2764;48.794;8.326;2022-12-28T03:11:01;3.40;;;3.10;;
5483;SDS011;2764;48.794;8.326;2022-12-28T03:13:34;3.03;;;2.83;;
5483;SDS011;2764;48.794;8.326;2022-12-28T03:14:48;3.50;;;3.20;;
5483;SDS011;2764;48.794;8.326;2022-12-28T03:15:54;3.40;;;3.10;;
5483;SDS011;2764;48.794;8.326;2022-12-28T03:17:03;3.20;;;3.03;;
5483;SDS011;2764;48.794;8.326;2022-12-28T03:18:26;3.67;;;3.37;;
5483;SDS011;2764;48.794;8.326;2022-12-28T03:19:50;2.70;;;2.50;;
5483;SDS011;2764;48.794;8.326;2022-12-28T03:21:15;3.10;;;2.87;;
5483;SDS011;2764;48.794;8.326;2022-12-28T03:22:36;2.50;;;2.30;;
5483;SDS011;2764;48.794;8.326;2022-12-28T03:23:59;3.90;;;3.50;;
5483;SDS011;2764;48.794;8.326;2022-12-28T03:25:22;3.67;;;3.37;;
5483;SDS011;2764;48.794;8.326;2022-12-28T03:26:47;3.57;;;3.27;;
5483;SDS011;2764;48.794;8.326;2022-12-28T03:28:11;3.17;;;2.97;;
5483;SDS011;2764;48.794;8.326;2022-12-28T03:29:37;3.50;;;3.30;;
5483;SDS011;2764;48.794;8.326;2022-12-28T03:31:04;2.97;;;2.77;;
5483;SDS011;2764;48.794;8.326;2022-12-28T03:32:10;2.93;;;2.73;;
5483;SDS011;2764;48.794;8.326;2022-12-28T03:33:12;2.90;;;2.70;;
5483;SDS011;2764;48.794;8.326;2022-12-28T03:34:14;2.70;;;2.60;;
5483;SDS011;2764;48.794;8.326;2022-12-28T03:35:16;2.67;;;2.47;;
5483;SDS011;2764;48.794;8.326;2022-12-28T03:36:28;2.73;;;2.53;;
5483;SDS011;2764;48.794;8.326;2022-12-28T03:37:54;2.77;;;2.57;;
5483;SDS011;2764;48.794;8.326;2022-12-28T03:39:13;3.07;;;2.87;;
5483;SDS011;2764;48.794;8.326;2022-12-28T03:41:34;2.67;;;2.57;;
5483;SDS011;2764;48.794;8.326;2022-12-28T03:42:48;3.50;;;3.30;;
5483;SDS011;2764;48.794;8.326;2022-12-28T03:44:19;3.23;;;2.80;;
5483;SDS011;2764;48.794;8.326;2022-12-28T03:47:12;3.07;;;2.80;;
5483;SDS011;2764;48.794;8.326;2022-12-28T03:48:15;3.43;;;3.10;;
5483;SDS011;2764;48.794;8.326;2022-12-28T03:49:18;2.97;;;2.77;;
5483;SDS011;2764;48.794;8.326;2022-12-28T03:50:21;3.50;;;3.20;;
5483;SDS011;2764;48.794;8.326;2022-12-28T03:51:25;2.80;;;2.63;;
5483;SDS011;2764;48.794;8.326;2022-12-28T03:52:30;2.93;;;2.73;;
5483;SDS011;2764;48.794;8.326;2022-12-28T03:53:40;2.67;;;2.57;;
5483;SDS011;2764;48.794;8.326;2022-12-28T03:54:44;3.07;;;2.73;;
5483;SDS011;2764;48.794;8.326;2022-12-28T03:55:46;3.20;;;3.00;;
5483;SDS011;2764;48.794;8.326;2022-12-28T03:56:49;2.93;;;2.73;;
5483;SDS011;2764;48.794;8.326;2022-12-28T03:57:51;3.43;;;3.13;;
5483;SDS011;2764;48.794;8.326;2022-12-28T03:58:53;2.70;;;2.50;;
5483;SDS011;2764;48.794;8.326;2022-12-28T03:59:56;2.97;;;2.70;;
5483;SDS011;2764;48.794;8.326;2022-12-28T04:00:58;2.27;;;2.17;;
5483;SDS011;2764;48.794;8.326;2022-12-28T04:01:59;2.50;;;2.40;;
5483;SDS011;2764;48.794;8.326;2022-12-28T04:03:01;2.43;;;2.23;;
5483;SDS011;2764;48.794;8.326;2022-12-28T04:04:03;3.03;;;2.77;;
5483;SDS011;2764;48.794;8.326;2022-12-28T04:05:05;2.60;;;2.40;;
5483;SDS011;2764;48.794;8.326;2022-12-28T04:06:08;3.10;;;2.80;;
5483;SDS011;2764;48.794;8.326;2022-12-28T04:07:16;3.23;;;2.93;;
5483;SDS011;2764;48.794;8.326;2022-12-28T04:08:17;2.50;;;2.30;;
5483;SDS011;2764;48.794;8.326;2022-12-28T04:09:19;2.50;;;2.30;;
5483;SDS011;2764;48.794;8.326;2022-12-28T04:10:22;3.33;;;3.07;;
5483;SDS011;2764;48.794;8.326;2022-12-28T04:11:24;2.60;;;2.50;;
5483;SDS011;2764;48.794;8.326;2022-12-28T04:12:26;3.07;;;2.87;;
5483;SDS011;2764;48.794;8.326;2022-12-28T04:13:30;2.93;;;2.73;;
5483;SDS011;2764;48.794;8.326;2022-12-28T04:14:32;3.30;;;3.10;;
5483;SDS011;2764;48.794;8.326;2022-12-28T04:15:34;2.40;;;2.30;;
5483;SDS011;2764;48.794;8.326;2022-12-28T04:16:35;2.50;;;2.40;;
5483;SDS011;2764;48.794;8.326;2022-12-28T04:17:37;3.22;;;3.03;;
5483;SDS011;2764;48.794;8.326;2022-12-28T04:18:39;3.07;;;2.80;;
5483;SDS011;2764;48.794;8.326;2022-12-28T04:19:44;2.80;;;2.57;;
5483;SDS011;2764;48.794;8.326;2022-12-28T04:20:46;3.00;;;2.80;;
5483;SDS011;2764;48.794;8.326;2022-12-28T04:21:48;2.90;;;2.70;;
5483;SDS011;2764;48.794;8.326;2022-12-28T04:22:50;2.47;;;2.30;;
5483;SDS011;2764;48.794;8.326;2022-12-28T04:23:51;3.53;;;3.20;;
5483;SDS011;2764;48.794;8.326;2022-12-28T04:24:53;2.37;;;2.27;;
5483;SDS011;2764;48.794;8.326;2022-12-28T04:25:59;3.97;;;2.37;;
5483;SDS011;2764;48.794;8.326;2022-12-28T04:27:03;5.93;;;2.73;;
5483;SDS011;2764;48.794;8.326;2022-12-28T04:28:04;2.20;;;2.10;;
5483;SDS011;2764;48.794;8.326;2022-12-28T04:29:06;2.13;;;2.03;;
5483;SDS011;2764;48.794;8.326;2022-12-28T04:30:08;2.37;;;2.27;;
5483;SDS011;2764;48.794;8.326;2022-12-28T04:31:11;2.77;;;2.57;;
5483;SDS011;2764;48.794;8.326;2022-12-28T04:32:14;2.70;;;2.50;;
5483;SDS011;2764;48.794;8.326;2022-12-28T04:33:16;2.40;;;2.20;;
5483;SDS011;2764;48.794;8.326;2022-12-28T04:34:18;3.20;;;2.90;;
5483;SDS011;2764;48.794;8.326;2022-12-28T04:35:19;2.63;;;2.43;;
5483;SDS011;2764;48.794;8.326;2022-12-28T04:36:21;2.07;;;1.87;;
5483;SDS011;2764;48.794;8.326;2022-12-28T04:37:23;2.37;;;2.27;;
5483;SDS011;2764;48.794;8.326;2022-12-28T04:38:24;2.17;;;2.00;;
5483;SDS011;2764;48.794;8.326;2022-12-28T04:39:26;2.67;;;2.47;;
5483;SDS011;2764;48.794;8.326;2022-12-28T04:40:48;2.83;;;2.63;;
5483;SDS011;2764;48.794;8.326;2022-12-28T04:41:50;2.43;;;2.33;;
5483;SDS011;2764;48.794;8.326;2022-12-28T04:42:52;2.20;;;2.00;;
5483;SDS011;2764;48.794;8.326;2022-12-28T04:43:54;2.70;;;2.50;;
5483;SDS011;2764;48.794;8.326;2022-12-28T04:44:56;3.53;;;2.80;;
5483;SDS011;2764;48.794;8.326;2022-12-28T04:45:58;2.60;;;2.40;;
5483;SDS011;2764;48.794;8.326;2022-12-28T04:47:00;2.67;;;2.37;;
5483;SDS011;2764;48.794;8.326;2022-12-28T04:48:02;2.33;;;2.13;;
5483;SDS011;2764;48.794;8.326;2022-12-28T04:49:04;2.40;;;2.30;;
5483;SDS011;2764;48.794;8.326;2022-12-28T04:50:06;2.60;;;2.27;;
5483;SDS011;2764;48.794;8.326;2022-12-28T04:52:23;2.73;;;2.53;;
5483;SDS011;2764;48.794;8.326;2022-12-28T04:53:25;2.40;;;2.30;;
5483;SDS011;2764;48.794;8.326;2022-12-28T04:54:26;4.30;;;2.57;;
5483;SDS011;2764;48.794;8.326;2022-12-28T04:55:28;2.97;;;2.67;;
5483;SDS011;2764;48.794;8.326;2022-12-28T04:56:33;2.40;;;2.23;;
5483;SDS011;2764;48.794;8.326;2022-12-28T04:57:35;7.13;;;2.37;;
5483;SDS011;2764;48.794;8.326;2022-12-28T04:58:37;4.67;;;2.47;;
5483;SDS011;2764;48.794;8.326;2022-12-28T04:59:39;8.23;;;2.03;;
5483;SDS011;2764;48.794;8.326;2022-12-28T05:00:41;1.93;;;1.83;;
5483;SDS011;2764;48.794;8.326;2022-12-28T05:01:43;2.37;;;2.27;;
5483;SDS011;2764;48.794;8.326;2022-12-28T05:02:45;6.83;;;2.30;;
5483;SDS011;2764;48.794;8.326;2022-12-28T05:03:47;2.63;;;2.37;;
5483;SDS011;2764;48.794;8.326;2022-12-28T05:04:56;2.37;;;2.03;;
5483;SDS011;2764;48.794;8.326;2022-12-28T05:05:59;2.27;;;2.17;;
5483;SDS011;2764;48.794;8.326;2022-12-28T05:07:05;3.93;;;2.50;;
5483;SDS011;2764;48.794;8.326;2022-12-28T05:08:07;2.40;;;2.30;;
5483;SDS011;2764;48.794;8.326;2022-12-28T05:09:08;3.00;;;2.60;;
5483;SDS011;2764;48.794;8.326;2022-12-28T05:10:10;10.70;;;2.20;;
5483;SDS011;2764;48.794;8.326;2022-12-28T05:11:13;2.97;;;2.60;;
5483;SDS011;2764;48.794;8.326;2022-12-28T05:12:18;2.50;;;2.30;;
5483;SDS011;2764;48.794;8.326;2022-12-28T05:13:21;3.27;;;2.30;;
5483;SDS011;2764;48.794;8.326;2022-12-28T05:14:23;3.20;;;2.00;;
5483;SDS011;2764;48.794;8.326;2022-12-28T05:15:24;2.40;;;2.20;;
5483;SDS011;2764;48.794;8.326;2022-12-28T05:16:26;4.23;;;1.83;;
5483;SDS011;2764;48.794;8.326;2022-12-28T05:17:29;2.17;;;2.07;;
5483;SDS011;2764;48.794;8.326;2022-12-28T05:18:31;4.57;;;2.30;;
5483;SDS011;2764;48.794;8.326;2022-12-28T05:19:32;2.07;;;1.97;;
5483;SDS011;2764;48.794;8.326;2022-12-28T05:20:34;2.30;;;2.10;;
5483;SDS011;2764;48.794;8.326;2022-12-28T05:21:36;2.80;;;2.40;;
5483;SDS011;2764;48.794;8.326;2022-12-28T05:22:38;2.60;;;2.40;;
5483;SDS011;2764;48.794;8.326;2022-12-28T05:23:41;2.37;;;2.17;;
5483;SDS011;2764;48.794;8.326;2022-12-28T05:24:43;3.07;;;2.30;;
5483;SDS011;2764;48.794;8.326;2022-12-28T05:25:51;2.37;;;2.17;;
5483;SDS011;2764;48.794;8.326;2022-12-28T05:26:53;2.23;;;2.10;;
5483;SDS011;2764;48.794;8.326;2022-12-28T05:27:55;3.50;;;2.33;;
5483;SDS011;2764;48.794;8.326;2022-12-28T05:28:57;2.70;;;2.33;;
5483;SDS011;2764;48.794;8.326;2022-12-28T05:29:59;2.90;;;2.50;;
5483;SDS011;2764;48.794;8.326;2022-12-28T05:31:02;2.03;;;1.90;;
5483;SDS011;2764;48.794;8.326;2022-12-28T05:32:05;4.77;;;2.33;;
5483;SDS011;2764;48.794;8.326;2022-12-28T05:33:07;2.03;;;1.93;;
5483;SDS011;2764;48.794;8.326;2022-12-28T05:34:09;3.37;;;2.37;;
5483;SDS011;2764;48.794;8.326;2022-12-28T05:35:11;2.40;;;2.30;;
5483;SDS011;2764;48.794;8.326;2022-12-28T05:36:13;3.77;;;2.30;;
5483;SDS011;2764;48.794;8.326;2022-12-28T05:37:19;3.23;;;2.50;;
5483;SDS011;2764;48.794;8.326;2022-12-28T05:38:22;2.27;;;2.17;;
5483;SDS011;2764;48.794;8.326;2022-12-28T05:39:24;2.47;;;2.30;;
5483;SDS011;2764;48.794;8.326;2022-12-28T05:40:25;3.07;;;2.50;;
5483;SDS011;2764;48.794;8.326;2022-12-28T05:41:28;2.60;;;2.40;;
5483;SDS011;2764;48.794;8.326;2022-12-28T05:42:30;2.90;;;2.07;;
5483;SDS011;2764;48.794;8.326;2022-12-28T05:43:33;3.07;;;2.60;;
5483;SDS011;2764;48.794;8.326;2022-12-28T05:44:35;1.80;;;1.70;;
5483;SDS011;2764;48.794;8.326;2022-12-28T05:45:37;2.00;;;1.90;;
5483;SDS011;2764;48.794;8.326;2022-12-28T05:46:38;2.40;;;2.20;;
5483;SDS011;2764;48.794;8.326;2022-12-28T05:47:40;2.90;;;2.20;;
5483;SDS011;2764;48.794;8.326;2022-12-28T05:48:42;2.40;;;2.20;;
5483;SDS011;2764;48.794;8.326;2022-12-28T05:49:44;2.73;;;1.77;;
5483;SDS011;2764;48.794;8.326;2022-12-28T05:50:47;2.00;;;1.90;;
5483;SDS011;2764;48.794;8.326;2022-12-28T05:51:49;2.40;;;2.30;;
5483;SDS011;2764;48.794;8.326;2022-12-28T05:52:52;6.03;;;1.70;;
5483;SDS011;2764;48.794;8.326;2022-12-28T05:53:54;2.33;;;2.17;;
5483;SDS011;2764;48.794;8.326;2022-12-28T05:54:56;2.30;;;2.20;;
5483;SDS011;2764;48.794;8.326;2022-12-28T05:56:06;2.30;;;1.83;;
5483;SDS011;2764;48.794;8.326;2022-12-28T05:57:14;2.00;;;1.90;;
5483;SDS011;2764;48.794;8.326;2022-12-28T05:58:16;2.30;;;2.10;;
5483;SDS011;2764;48.794;8.326;2022-12-28T05:59:18;1.90;;;1.80;;
5483;SDS011;2764;48.794;8.326;2022-12-28T06:00:20;1.73;;;1.63;;
5483;SDS011;2764;48.794;8.326;2022-12-28T06:01:23;2.10;;;1.90;;
5483;SDS011;2764;48.794;8.326;2022-12-28T06:02:27;2.60;;;2.10;;
5483;SDS011;2764;48.794;8.326;2022-12-28T06:03:28;10.27;;;2.00;;
5483;SDS011;2764;48.794;8.326;2022-12-28T06:04:30;5.43;;;1.90;;
5483;SDS011;2764;48.794;8.326;2022-12-28T06:05:32;2.00;;;1.90;;
5483;SDS011;2764;48.794;8.326;2022-12-28T06:06:35;3.70;;;2.00;;
5483;SDS011;2764;48.794;8.326;2022-12-28T06:07:37;1.93;;;1.70;;
5483;SDS011;2764;48.794;8.326;2022-12-28T06:08:39;1.87;;;1.77;;
5483;SDS011;2764;48.794;8.326;2022-12-28T06:09:41;1.90;;;1.80;;
5483;SDS011;2764;48.794;8.326;2022-12-28T06:10:43;3.00;;;2.27;;
5483;SDS011;2764;48.794;8.326;2022-12-28T06:11:45;3.20;;;1.90;;
5483;SDS011;2764;48.794;8.326;2022-12-28T06:12:46;1.83;;;1.73;;
5483;SDS011;2764;48.794;8.326;2022-12-28T06:13:48;1.80;;;1.70;;
5483;SDS011;2764;48.794;8.326;2022-12-28T06:14:50;2.20;;;1.73;;
5483;SDS011;2764;48.794;8.326;2022-12-28T06:15:52;1.90;;;1.80;;
5483;SDS011;2764;48.794;8.326;2022-12-28T06:16:54;2.30;;;2.20;;
5483;SDS011;2764;48.794;8.326;2022-12-28T06:17:55;2.23;;;2.07;;
5483;SDS011;2764;48.794;8.326;2022-12-28T06:18:57;7.53;;;2.00;;
5483;SDS011;2764;48.794;8.326;2022-12-28T06:19:59;1.87;;;1.77;;
5483;SDS011;2764;48.794;8.326;2022-12-28T06:21:20;1.90;;;1.80;;
5483;SDS011;2764;48.794;8.326;2022-12-28T06:22:28;2.00;;;1.80;;
5483;SDS011;2764;48.794;8.326;2022-12-28T06:23:30;2.53;;;2.33;;
5483;SDS011;2764;48.794;8.326;2022-12-28T06:24:32;2.00;;;1.90;;
5483;SDS011;2764;48.794;8.326;2022-12-28T06:25:35;1.70;;;1.60;;
5483;SDS011;2764;48.794;8.326;2022-12-28T06:26:38;1.97;;;1.87;;
5483;SDS011;2764;48.794;8.326;2022-12-28T06:27:41;2.00;;;1.90;;
5483;SDS011;2764;48.794;8.326;2022-12-28T06:28:43;2.40;;;1.80;;
5483;SDS011;2764;48.794;8.326;2022-12-28T06:29:45;2.67;;;2.33;;
5483;SDS011;2764;48.794;8.326;2022-12-28T06:30:47;1.50;;;1.40;;
5483;SDS011;2764;48.794;8.326;2022-12-28T06:31:53;2.47;;;2.00;;
5483;SDS011;2764;48.794;8.326;2022-12-28T06:32:56;1.80;;;1.70;;
5483;SDS011;2764;48.794;8.326;2022-12-28T06:33:59;1.30;;;1.30;;
5483;SDS011;2764;48.794;8.326;2022-12-28T06:35:01;1.87;;;1.77;;
5483;SDS011;2764;48.794;8.326;2022-12-28T06:36:03;1.97;;;1.87;;
5483;SDS011;2764;48.794;8.326;2022-12-28T06:37:05;1.80;;;1.70;;
5483;SDS011;2764;48.794;8.326;2022-12-28T06:38:07;1.67;;;1.57;;
5483;SDS011;2764;48.794;8.326;2022-12-28T06:39:10;1.87;;;1.77;;
5483;SDS011;2764;48.794;8.326;2022-12-28T06:40:14;1.80;;;1.70;;
5483;SDS011;2764;48.794;8.326;2022-12-28T06:41:16;1.50;;;1.50;;
5483;SDS011;2764;48.794;8.326;2022-12-28T06:42:19;2.40;;;1.70;;
5483;SDS011;2764;48.794;8.326;2022-12-28T06:43:21;2.33;;;1.77;;
5483;SDS011;2764;48.794;8.326;2022-12-28T06:44:23;1.90;;;1.80;;
5483;SDS011;2764;48.794;8.326;2022-12-28T06:45:24;3.13;;;1.50;;
5483;SDS011;2764;48.794;8.326;2022-12-28T06:46:27;2.10;;;2.00;;
5483;SDS011;2764;48.794;8.326;2022-12-28T06:47:31;1.83;;;1.73;;
5483;SDS011;2764;48.794;8.326;2022-12-28T06:48:34;1.60;;;1.60;;
5483;SDS011;2764;48.794;8.326;2022-12-28T06:49:36;1.87;;;1.77;;
5483;SDS011;2764;48.794;8.326;2022-12-28T06:50:38;1.57;;;1.47;;
5483;SDS011;2764;48.794;8.326;2022-12-28T06:51:40;2.90;;;1.87;;
5483;SDS011;2764;48.794;8.326;2022-12-28T06:52:42;1.87;;;1.77;;
5483;SDS011;2764;48.794;8.326;2022-12-28T06:53:44;2.00;;;1.90;;
5483;SDS011;2764;48.794;8.326;2022-12-28T06:54:47;1.67;;;1.57;;
5483;SDS011;2764;48.794;8.326;2022-12-28T06:55:56;1.83;;;1.53;;
5483;SDS011;2764;48.794;8.326;2022-12-28T06:57:00;1.60;;;1.50;;
5483;SDS011;2764;48.794;8.326;2022-12-28T06:58:02;2.17;;;2.07;;
5483;SDS011;2764;48.794;8.326;2022-12-28T06:59:04;1.80;;;1.70;;
5483;SDS011;2764;48.794;8.326;2022-12-28T07:00:06;1.63;;;1.53;;
5483;SDS011;2764;48.794;8.326;2022-12-28T07:02:22;2.83;;;1.53;;
5483;SDS011;2764;48.794;8.326;2022-12-28T07:03:24;1.70;;;1.60;;
5483;SDS011;2764;48.794;8.326;2022-12-28T07:04:26;2.63;;;1.63;;
5483;SDS011;2764;48.794;8.326;2022-12-28T07:05:28;1.73;;;1.63;;
5483;SDS011;2764;48.794;8.326;2022-12-28T07:06:35;1.47;;;1.40;;
5483;SDS011;2764;48.794;8.326;2022-12-28T07:07:39;1.80;;;1.70;;
5483;SDS011;2764;48.794;8.326;2022-12-28T07:08:40;1.70;;;1.60;;
5483;SDS011;2764;48.794;8.326;2022-12-28T07:09:43;2.10;;;1.70;;
5483;SDS011;2764;48.794;8.326;2022-12-28T07:10:44;1.77;;;1.57;;
5483;SDS011;2764;48.794;8.326;2022-12-28T07:11:48;2.40;;;1.83;;
5483;SDS011;2764;48.794;8.326;2022-12-28T07:12:50;1.30;;;1.20;;
5483;SDS011;2764;48.794;8.326;2022-12-28T07:13:52;2.67;;;2.17;;